Time;durP1;ratioP1;P1;durP2;ratioP2;P2;SDS_P1;SDS_P2;PMS_P1;PMS_P2;Temp;Humidity;BMP_temperature;BMP_pressure;BME280_temperature;BME280_humidity;BME280_pressure;Samples;Min_cycle;Max_cycle;Signal;HPM_P1;HPM_P2
2023/12/30 00:01:57;;;;;;;0.60;0.60;;;;;;;3.72;100.00;99793.78;5073992;28;20192;-63
2023/12/30 00:04:23;;;;;;;0.60;0.60;;;;;;;3.73;100.00;99798.84;5073032;28;20208;-63
2023/12/30 00:06:50;;;;;;;0.50;0.50;;;;;;;3.72;100.00;99804.75;5072822;28;20196;-63
2023/12/30 00:09:17;;;;;;;0.53;0.53;;;;;;;3.76;100.00;99795.47;5072751;28;20681;-63
2023/12/30 00:11:45;;;;;;;0.80;0.80;;;;;;;3.75;100.00;99792.06;5075640;28;20204;-63
2023/12/30 00:14:11;;;;;;;0.70;0.70;;;;;;;3.65;100.00;99791.19;5072768;28;20195;-64
2023/12/30 00:16:39;;;;;;;1.07;1.07;;;;;;;3.56;100.00;99800.44;5072979;28;20250;-63
2023/12/30 00:19:06;;;;;;;0.63;0.63;;;;;;;3.49;100.00;99791.16;5072638;28;20207;-64
2023/12/30 00:21:33;;;;;;;1.07;1.07;;;;;;;3.47;100.00;99792.81;5073000;28;20223;-63
2023/12/30 00:23:59;;;;;;;0.90;0.90;;;;;;;3.43;100.00;99788.56;5070137;28;20630;-63
2023/12/30 00:26:27;;;;;;;0.70;0.70;;;;;;;3.46;100.00;99791.09;5072152;28;20261;-63
2023/12/30 00:28:55;;;;;;;0.83;0.83;;;;;;;3.46;100.00;99798.72;5072641;28;20207;-63
2023/12/30 00:31:23;;;;;;;0.60;0.60;;;;;;;3.51;100.00;99797.06;5067389;28;20253;-63
2023/12/30 00:33:50;;;;;;;0.60;0.60;;;;;;;3.53;100.00;99786.09;5071640;28;20625;-63
2023/12/30 00:36:16;;;;;;;1.60;1.60;;;;;;;3.55;100.00;99794.56;5071926;28;20287;-63
2023/12/30 00:38:43;;;;;;;0.70;0.70;;;;;;;3.54;100.00;99786.94;5072581;28;20212;-62
2023/12/30 00:41:11;;;;;;;0.70;0.70;;;;;;;3.50;100.00;99780.16;5072453;28;20253;-63
2023/12/30 00:43:38;;;;;;;5.00;1.27;;;;;;;3.48;100.00;99786.91;5071891;28;20212;-63
2023/12/30 00:46:06;;;;;;;0.70;0.70;;;;;;;3.50;100.00;99785.22;5072474;28;20196;-62
2023/12/30 00:48:33;;;;;;;0.80;0.80;;;;;;;3.48;100.00;99786.91;5071500;28;20208;-62
2023/12/30 00:51:01;;;;;;;0.70;0.70;;;;;;;3.46;100.00;99778.44;5072291;28;20208;-63
2023/12/30 00:53:28;;;;;;;0.60;0.60;;;;;;;3.48;100.00;99781.84;5072720;28;20198;-62
2023/12/30 00:55:54;;;;;;;0.53;0.53;;;;;;;3.49;100.00;99783.56;5073312;28;20204;-62
2023/12/30 00:58:21;;;;;;;0.93;0.93;;;;;;;3.38;100.00;99773.34;5071916;28;20279;-62
2023/12/30 01:00:48;;;;;;;0.73;0.73;;;;;;;3.42;100.00;99784.34;5071607;28;20629;-62
2023/12/30 01:03:17;;;;;;;0.73;0.73;;;;;;;3.41;100.00;99786.03;5072975;28;20207;-62
2023/12/30 01:05:44;;;;;;;0.77;0.77;;;;;;;3.35;100.00;99780.94;5072395;28;20200;-63
2023/12/30 01:08:11;;;;;;;0.90;0.90;;;;;;;3.36;100.00;99784.34;5071992;28;20643;-63
2023/12/30 01:10:38;;;;;;;1.00;1.00;;;;;;;3.37;100.00;99786.84;5071395;28;20200;-63
2023/12/30 01:13:06;;;;;;;1.13;1.13;;;;;;;3.37;100.00;99788.53;5071438;28;20677;-62
2023/12/30 01:15:33;;;;;;;0.73;0.73;;;;;;;3.29;100.00;99775.00;5073869;28;20287;-64
2023/12/30 01:17:59;;;;;;;0.60;0.60;;;;;;;3.35;100.00;99786.00;5074145;28;20207;-63
2023/12/30 01:20:27;;;;;;;0.80;0.80;;;;;;;3.35;100.00;99782.63;5079592;28;20266;-63
2023/12/30 01:22:54;;;;;;;0.70;0.70;;;;;;;3.30;100.00;99779.22;5071499;28;20212;-63
2023/12/30 01:25:21;;;;;;;0.60;0.60;;;;;;;3.21;100.00;99767.34;5071947;28;20200;-63
2023/12/30 01:27:48;;;;;;;0.67;0.67;;;;;;;3.10;100.00;99771.53;5071136;28;20637;-62
2023/12/30 01:30:14;;;;;;;0.60;0.60;;;;;;;3.07;100.00;99777.41;5071458;28;20660;-62
2023/12/30 01:32:41;;;;;;;0.80;0.80;;;;;;;3.08;100.00;99771.50;5074107;28;20200;-63
2023/12/30 01:35:08;;;;;;;0.77;0.77;;;;;;;3.10;100.00;99779.94;5072092;28;20199;-62
2023/12/30 01:37:36;;;;;;;0.90;0.90;;;;;;;3.12;100.00;99773.22;5072923;28;20741;-62
2023/12/30 01:40:03;;;;;;;0.80;0.80;;;;;;;3.10;100.00;99774.88;5071738;28;20200;-62
2023/12/30 01:42:30;;;;;;;0.60;0.60;;;;;;;3.07;100.00;99771.50;5071016;28;20196;-62
2023/12/30 01:44:56;;;;;;;0.67;0.67;;;;;;;3.03;100.00;99765.59;5071180;28;20199;-62
2023/12/30 01:47:24;;;;;;;0.70;0.70;;;;;;;2.99;100.00;99761.34;5071464;28;20664;-63
2023/12/30 01:49:50;;;;;;;1.00;1.00;;;;;;;2.97;100.00;99752.84;5070821;28;20204;-63
2023/12/30 01:52:18;;;;;;;0.60;0.60;;;;;;;2.99;100.00;99761.34;5070858;28;20225;-62
2023/12/30 01:54:46;;;;;;;0.77;0.77;;;;;;;2.99;100.00;99756.25;5070833;28;20714;-62
2023/12/30 01:57:13;;;;;;;0.70;0.70;;;;;;;2.93;100.00;99741.03;5071791;28;20257;-63
2023/12/30 01:59:41;;;;;;;0.50;0.50;;;;;;;2.99;100.00;99751.19;5070169;28;20204;-62
2023/12/30 02:02:07;;;;;;;0.97;0.97;;;;;;;2.98;100.00;99754.56;5071418;28;20200;-63
2023/12/30 02:04:35;;;;;;;0.63;0.63;;;;;;;2.97;100.00;99752.84;5070332;28;20212;-62
2023/12/30 02:07:02;;;;;;;0.70;0.70;;;;;;;2.94;100.00;99752.84;5072414;28;20251;-62
2023/12/30 02:09:28;;;;;;;0.77;0.77;;;;;;;2.94;100.00;99750.31;5070610;28;20250;-62
2023/12/30 02:11:57;;;;;;;0.57;0.57;;;;;;;2.95;100.00;99753.69;5070700;28;20208;-62
2023/12/30 02:14:24;;;;;;;0.70;0.70;;;;;;;2.96;100.00;99761.31;5070335;28;20200;-62
2023/12/30 02:16:51;;;;;;;0.90;0.90;;;;;;;2.97;100.00;99750.31;5070472;28;20200;-62
2023/12/30 02:19:18;;;;;;;1.00;0.90;;;;;;;2.95;100.00;99744.41;5071132;28;20192;-62
2023/12/30 02:21:46;;;;;;;1.10;1.10;;;;;;;2.97;100.00;99741.91;5071372;28;20672;-62
2023/12/30 02:24:14;;;;;;;0.70;0.70;;;;;;;2.94;100.00;99731.75;5069131;28;20576;-63
2023/12/30 02:26:40;;;;;;;0.60;0.60;;;;;;;2.97;100.00;99745.25;5070325;28;20631;-62
2023/12/30 02:29:07;;;;;;;0.70;0.70;;;;;;;2.95;100.00;99753.69;5070408;28;20200;-62
2023/12/30 02:31:38;;;;;;;0.73;0.73;;;;;;;2.92;100.00;99756.22;5071184;28;20730;-62
2023/12/30 02:34:05;;;;;;;1.60;1.03;;;;;;;2.92;100.00;99759.59;5065965;28;20744;-62
2023/12/30 02:36:31;;;;;;;0.70;0.70;;;;;;;2.92;100.00;99759.59;5070230;28;20660;-62
2023/12/30 02:38:58;;;;;;;0.60;0.60;;;;;;;2.90;100.00;99756.22;5070614;28;20254;-63
2023/12/30 02:41:27;;;;;;;0.50;0.50;;;;;;;2.88;100.00;99755.34;5070197;28;20192;-63
2023/12/30 02:43:58;;;;;;;0.60;0.60;;;;;;;2.69;100.00;99735.81;5070641;28;20216;-62
2023/12/30 02:46:25;;;;;;;1.00;1.00;;;;;;;2.84;100.00;99771.38;5070336;28;20196;-62
2023/12/30 02:48:51;;;;;;;1.13;1.13;;;;;;;2.83;100.00;99763.75;5070137;28;20631;-62
2023/12/30 02:51:19;;;;;;;0.70;0.70;;;;;;;2.81;100.00;99760.38;5071689;28;20238;-63
2023/12/30 02:53:46;;;;;;;0.60;0.60;;;;;;;2.75;100.00;99765.41;5070856;28;20606;-63
2023/12/30 02:56:19;;;;;;;0.67;0.67;;;;;;;2.71;100.00;99774.66;5070633;28;20208;-62
2023/12/30 02:58:49;;;;;;;1.40;1.30;;;;;;;2.48;100.00;99745.78;5068681;28;20200;-62
2023/12/30 03:01:16;;;;;;;0.93;0.93;;;;;;;2.60;100.00;99771.19;5073698;28;20199;-62
2023/12/30 03:03:42;;;;;;;0.67;0.67;;;;;;;2.59;100.00;99775.38;5069711;28;20337;-62
2023/12/30 03:06:09;;;;;;;1.07;1.07;;;;;;;2.60;100.00;99778.78;5070386;28;20257;-62
2023/12/30 03:08:36;;;;;;;0.70;0.70;;;;;;;2.55;100.00;99767.78;5073865;28;20203;-62
2023/12/30 03:11:03;;;;;;;0.80;0.80;;;;;;;2.41;100.00;99764.28;5073023;28;20676;-62
2023/12/30 03:13:30;;;;;;;2.90;1.17;;;;;;;2.34;100.00;99762.53;5073996;28;20203;-62
2023/12/30 03:15:58;;;;;;;0.60;0.60;;;;;;;2.31;100.00;99768.41;5073878;28;20254;-62
2023/12/30 03:18:25;;;;;;;0.70;0.70;;;;;;;2.32;100.00;99772.66;5074051;28;20629;-62
2023/12/30 03:20:52;;;;;;;0.53;0.53;;;;;;;2.31;100.00;99765.03;5073563;28;20196;-62
2023/12/30 03:23:19;;;;;;;1.43;1.43;;;;;;;2.33;100.00;99768.41;5073590;28;20243;-62
2023/12/30 03:25:45;;;;;;;1.10;1.10;;;;;;;2.36;100.00;99763.41;5073539;28;20202;-62
2023/12/30 03:28:12;;;;;;;1.50;1.20;;;;;;;2.34;100.00;99773.50;5074142;28;20192;-62
2023/12/30 03:30:39;;;;;;;0.97;0.97;;;;;;;2.24;100.00;99751.50;5074256;28;20738;-62
2023/12/30 03:33:07;;;;;;;1.40;1.40;;;;;;;2.30;100.00;99765.84;5073783;28;20729;-62
2023/12/30 03:35:34;;;;;;;0.80;0.80;;;;;;;2.34;100.00;99768.44;5073848;28;20200;-62
2023/12/30 03:38:00;;;;;;;1.37;0.87;;;;;;;2.33;100.00;99773.47;5074495;28;20196;-62
2023/12/30 03:40:26;;;;;;;1.30;1.30;;;;;;;2.32;100.00;99779.38;5073429;28;20246;-62
2023/12/30 03:42:53;;;;;;;3.57;3.30;;;;;;;2.23;100.00;99775.06;5073582;28;20192;-63
2023/12/30 03:45:20;;;;;;;3.07;2.97;;;;;;;2.33;100.00;99786.13;5073388;28;20212;-62
2023/12/30 03:47:47;;;;;;;3.10;2.90;;;;;;;2.35;100.00;99784.47;5073045;28;20246;-62
2023/12/30 03:50:15;;;;;;;2.73;2.73;;;;;;;2.31;100.00;99788.66;5074236;28;20664;-62
2023/12/30 03:52:42;;;;;;;3.23;3.13;;;;;;;2.31;100.00;99787.81;5072866;28;20285;-62
2023/12/30 03:55:10;;;;;;;3.47;3.37;;;;;;;2.32;100.00;99792.03;5073217;28;20203;-62
2023/12/30 03:57:37;;;;;;;1.33;1.33;;;;;;;2.25;100.00;99781.00;5072987;28;20204;-62
2023/12/30 04:00:04;;;;;;;2.87;2.50;;;;;;;2.32;100.00;99784.44;5073808;28;20714;-62
2023/12/30 04:02:31;;;;;;;1.80;1.80;;;;;;;2.31;100.00;99792.88;5071529;28;20231;-62
2023/12/30 04:04:58;;;;;;;1.93;1.83;;;;;;;2.28;100.00;99792.84;5072861;28;20224;-62
2023/12/30 04:07:26;;;;;;;0.80;0.80;;;;;;;2.23;100.00;99789.44;5072815;28;20265;-62
2023/12/30 04:09:53;;;;;;;0.90;0.90;;;;;;;2.19;100.00;99791.06;5074331;28;20196;-62
2023/12/30 04:12:20;;;;;;;0.97;0.80;;;;;;;2.17;100.00;99789.34;5072761;28;20196;-62
2023/12/30 04:14:47;;;;;;;0.97;0.97;;;;;;;2.13;100.00;99789.31;5072878;28;20192;-62
2023/12/30 04:17:14;;;;;;;0.70;0.70;;;;;;;2.06;100.00;99792.66;5072243;28;20200;-62
2023/12/30 04:19:40;;;;;;;2.20;1.30;;;;;;;2.10;100.00;99796.06;5072759;28;20192;-62
2023/12/30 04:22:07;;;;;;;1.60;1.47;;;;;;;2.10;100.00;99796.88;5071488;28;20204;-63
2023/12/30 04:24:35;;;;;;;1.33;1.33;;;;;;;2.10;100.00;99804.47;5072436;28;20208;-62
2023/12/30 04:27:02;;;;;;;0.73;0.73;;;;;;;2.10;100.00;99796.06;5072521;28;20200;-62
2023/12/30 04:29:29;;;;;;;1.63;1.63;;;;;;;2.06;100.00;99790.13;5072424;28;20208;-62
2023/12/30 04:31:56;;;;;;;1.33;1.33;;;;;;;2.16;100.00;99792.72;5070691;28;20231;-62
2023/12/30 04:34:22;;;;;;;0.80;0.80;;;;;;;2.10;100.00;99794.34;5072207;28;20933;-62
2023/12/30 04:36:49;;;;;;;0.60;0.60;;;;;;;2.09;100.00;99795.19;5072822;28;20574;-62
2023/12/30 04:39:16;;;;;;;0.87;0.87;;;;;;;2.07;100.00;99791.78;5074732;28;20208;-62
2023/12/30 04:41:44;;;;;;;0.77;0.77;;;;;;;2.05;100.00;99785.88;5072393;28;20192;-62
2023/12/30 04:44:11;;;;;;;0.90;0.90;;;;;;;2.06;100.00;99787.59;5073818;28;20211;-62
2023/12/30 04:46:37;;;;;;;1.10;1.10;;;;;;;2.02;100.00;99783.31;5074853;28;20200;-62
2023/12/30 04:49:04;;;;;;;0.80;0.80;;;;;;;1.98;100.00;99786.66;5073204;28;20660;-62
2023/12/30 04:51:31;;;;;;;1.27;1.17;;;;;;;1.95;100.00;99786.63;5071251;28;20285;-62
2023/12/30 04:53:57;;;;;;;0.73;0.73;;;;;;;1.93;100.00;99778.19;5070837;28;20195;-62
2023/12/30 04:56:24;;;;;;;0.83;0.83;;;;;;;1.89;100.00;99780.66;5071832;28;20208;-62
2023/12/30 04:58:52;;;;;;;0.57;0.57;;;;;;;1.86;100.00;99776.41;5072949;28;20192;-62
2023/12/30 05:01:19;;;;;;;1.47;1.47;;;;;;;1.89;100.00;99784.03;5072182;28;20257;-62
2023/12/30 05:03:46;;;;;;;0.90;0.90;;;;;;;1.92;100.00;99779.00;5071831;28;20211;-62
2023/12/30 05:06:21;;;;;;;0.80;0.80;;;;;;;1.92;100.00;99779.00;5072134;28;20203;-62
2023/12/30 05:08:48;;;;;;;0.70;0.70;;;;;;;1.92;100.00;99784.06;5071834;28;20196;-62
2023/12/30 05:11:14;;;;;;;2.83;1.90;;;;;;;1.94;100.00;99782.38;5071663;28;20209;-63
2023/12/30 05:13:41;;;;;;;0.80;0.80;;;;;;;1.98;100.00;99789.16;5071067;28;20196;-62
2023/12/30 05:16:09;;;;;;;0.80;0.80;;;;;;;2.01;100.00;99789.19;5071733;28;20196;-62
2023/12/30 05:18:36;;;;;;;0.90;0.90;;;;;;;2.04;100.00;99789.22;5071427;28;20196;-62
2023/12/30 05:21:03;;;;;;;3.40;0.97;;;;;;;2.05;100.00;99785.88;5071777;28;20192;-62
2023/12/30 05:23:30;;;;;;;0.97;0.97;;;;;;;2.09;100.00;99791.81;5071170;28;20200;-62
2023/12/30 05:25:57;;;;;;;1.63;1.63;;;;;;;2.12;100.00;99791.84;5072506;28;20216;-62
2023/12/30 05:28:23;;;;;;;1.47;1.37;;;;;;;2.18;100.00;99806.22;5071501;28;20200;-62
2023/12/30 05:30:50;;;;;;;1.27;1.27;;;;;;;2.18;100.00;99804.53;5075076;28;20671;-62
2023/12/30 05:33:18;;;;;;;1.63;1.53;;;;;;;2.18;100.00;99796.09;5070801;28;20634;-62
2023/12/30 05:35:45;;;;;;;0.80;0.80;;;;;;;2.22;100.00;99807.97;5070608;28;20204;-62
2023/12/30 05:38:12;;;;;;;11.73;4.97;;;;;;;2.23;100.00;99805.41;5071356;28;20192;-62
2023/12/30 05:40:39;;;;;;;9.43;9.00;;;;;;;2.15;100.00;99793.56;5075005;28;20203;-62
2023/12/30 05:43:06;;;;;;;12.30;7.80;;;;;;;2.22;100.00;99802.91;5071447;28;20201;-62
2023/12/30 05:45:33;;;;;;;9.80;2.83;;;;;;;2.24;100.00;99806.28;5071317;28;20222;-62
2023/12/30 05:47:59;;;;;;;3.20;3.10;;;;;;;2.24;100.00;99811.34;5070741;28;20210;-62
2023/12/30 05:50:28;;;;;;;1.63;1.63;;;;;;;2.13;100.00;99801.97;5070571;28;20212;-62
2023/12/30 05:52:55;;;;;;;2.97;2.67;;;;;;;2.23;100.00;99815.53;5069606;28;20586;-62
2023/12/30 05:55:21;;;;;;;1.43;1.43;;;;;;;2.22;100.00;99818.06;5069905;28;20196;-62
2023/12/30 05:57:48;;;;;;;2.33;2.30;;;;;;;2.16;100.00;99813.81;5069071;28;20208;-62
2023/12/30 06:00:16;;;;;;;2.37;1.53;;;;;;;2.19;100.00;99823.09;5071324;28;20269;-63
2023/12/30 06:02:43;;;;;;;2.80;2.70;;;;;;;2.10;100.00;99824.69;5069158;28;20196;-62
2023/12/30 06:05:10;;;;;;;1.57;1.57;;;;;;;2.08;100.00;99818.78;5070370;28;20219;-62
2023/12/30 06:07:39;;;;;;;1.87;1.77;;;;;;;2.11;100.00;99821.34;5070695;28;20226;-62
2023/12/30 06:10:07;;;;;;;2.13;2.03;;;;;;;2.02;100.00;99816.19;5071786;28;20295;-62
2023/12/30 06:12:33;;;;;;;1.30;1.30;;;;;;;2.08;100.00;99831.41;5070676;28;20689;-62
2023/12/30 06:15:00;;;;;;;1.33;1.33;;;;;;;2.09;100.00;99843.25;5070666;28;20259;-62
2023/12/30 06:17:27;;;;;;;1.50;1.50;;;;;;;2.04;100.00;99834.75;5070142;28;20253;-62
2023/12/30 06:19:54;;;;;;;2.13;2.13;;;;;;;2.06;100.00;99842.34;5072009;28;20200;-62
2023/12/30 06:22:20;;;;;;;1.63;1.53;;;;;;;1.91;100.00;99812.69;5070810;28;20610;-62
2023/12/30 06:24:48;;;;;;;1.03;1.03;;;;;;;2.09;100.00;99844.91;5069920;28;20231;-62
2023/12/30 06:27:15;;;;;;;2.53;2.53;;;;;;;2.13;100.00;99845.81;5070037;28;20245;-62
2023/12/30 06:29:42;;;;;;;1.60;1.60;;;;;;;2.17;100.00;99839.91;5072944;28;20257;-62
2023/12/30 06:32:09;;;;;;;1.37;1.37;;;;;;;2.21;100.00;99846.72;5068940;28;20242;-62
2023/12/30 06:34:35;;;;;;;1.17;1.17;;;;;;;2.25;100.00;99848.44;5070316;28;21918;-62
2023/12/30 06:37:02;;;;;;;1.30;1.30;;;;;;;2.27;100.00;99852.69;5068565;28;20204;-62
2023/12/30 06:39:29;;;;;;;1.37;1.37;;;;;;;2.29;100.00;99851.03;5073089;28;20675;-62
2023/12/30 06:41:59;;;;;;;1.30;1.30;;;;;;;2.34;100.00;99853.59;5073506;28;20226;-62
2023/12/30 06:44:26;;;;;;;1.93;1.90;;;;;;;2.38;100.00;99857.88;5070463;28;20650;-62
2023/12/30 06:46:53;;;;;;;2.20;2.10;;;;;;;2.45;100.00;99857.09;5074835;28;20295;-62
2023/12/30 06:49:20;;;;;;;1.13;1.13;;;;;;;2.48;100.00;99857.13;5074012;28;20253;-62
2023/12/30 06:51:46;;;;;;;0.77;0.77;;;;;;;2.51;100.00;99857.16;5080313;28;20293;-62
2023/12/30 06:54:13;;;;;;;1.00;1.00;;;;;;;2.55;100.00;99861.41;5073506;28;20245;-62
2023/12/30 06:56:40;;;;;;;1.10;1.10;;;;;;;2.59;100.00;99855.53;5073266;28;20253;-62
2023/12/30 06:59:08;;;;;;;1.73;1.73;;;;;;;2.63;100.00;99854.72;5072999;28;20265;-62
2023/12/30 07:01:39;;;;;;;1.70;1.70;;;;;;;2.58;100.00;99847.09;5072870;28;20253;-62
2023/12/30 07:04:06;;;;;;;1.13;1.13;;;;;;;2.69;100.00;99856.44;5072783;28;20626;-62
2023/12/30 07:06:32;;;;;;;1.03;1.03;;;;;;;2.73;100.00;99853.97;5072079;28;20212;-63
2023/12/30 07:08:59;;;;;;;1.00;1.00;;;;;;;2.80;100.00;99853.19;5071019;28;20251;-62
2023/12/30 07:11:26;;;;;;;0.83;0.83;;;;;;;2.89;100.00;99853.25;5073333;28;20204;-62
2023/12/30 07:13:52;;;;;;;1.20;1.20;;;;;;;2.94;100.00;99858.38;5073450;28;20196;-62
2023/12/30 07:16:20;;;;;;;1.00;1.00;;;;;;;2.99;100.00;99865.16;5073269;28;20622;-62
2023/12/30 07:18:48;;;;;;;0.73;0.73;;;;;;;3.04;100.00;99855.91;5072586;28;20656;-63
2023/12/30 07:21:14;;;;;;;1.00;1.00;;;;;;;3.04;100.00;99845.75;5073296;28;20196;-63
2023/12/30 07:23:41;;;;;;;1.10;1.10;;;;;;;3.17;100.00;99862.75;5073331;28;20749;-63
2023/12/30 07:26:08;;;;;;;1.47;1.23;;;;;;;3.22;100.00;99861.94;5073029;28;20216;-63
2023/12/30 07:28:34;;;;;;;3.03;2.93;;;;;;;3.24;100.00;99863.63;5072513;28;20274;-62
2023/12/30 07:31:01;;;;;;;4.73;2.10;;;;;;;3.27;100.00;99872.94;5076223;28;20265;-62
2023/12/30 07:33:29;;;;;;;1.20;1.20;;;;;;;3.35;100.00;99862.03;5067942;28;20265;-63
2023/12/30 07:35:57;;;;;;;0.90;0.90;;;;;;;3.30;100.00;99860.28;5072512;28;20676;-62
2023/12/30 07:38:24;;;;;;;0.80;0.80;;;;;;;3.20;100.00;99850.94;5072863;28;20240;-63
2023/12/30 07:40:50;;;;;;;1.17;1.17;;;;;;;3.36;100.00;99861.16;5072421;28;20211;-63
2023/12/30 07:43:17;;;;;;;1.23;1.23;;;;;;;3.36;100.00;99857.81;5072794;28;20199;-63
2023/12/30 07:45:44;;;;;;;0.50;0.50;;;;;;;3.35;100.00;99863.72;5072416;28;20219;-63
2023/12/30 07:48:11;;;;;;;1.00;1.00;;;;;;;3.38;100.00;99861.19;5072754;28;20207;-63
2023/12/30 07:50:39;;;;;;;2.03;2.03;;;;;;;3.39;100.00;99857.84;5072479;28;20208;-63
2023/12/30 07:53:05;;;;;;;1.07;1.07;;;;;;;3.47;100.00;99871.38;5072199;28;20281;-63
2023/12/30 07:55:32;;;;;;;0.67;0.67;;;;;;;3.56;100.00;99872.28;5072903;28;20204;-63
2023/12/30 07:57:59;;;;;;;1.27;1.27;;;;;;;3.64;100.00;99870.66;5070759;28;20215;-64
2023/12/30 08:00:25;;;;;;;0.67;0.67;;;;;;;3.73;100.00;99879.97;5072284;28;20208;-63
2023/12/30 08:02:52;;;;;;;0.90;0.90;;;;;;;3.82;100.00;99885.09;5074908;28;20262;-63
2023/12/30 08:05:19;;;;;;;1.03;1.03;;;;;;;3.80;100.00;99874.09;5071911;28;20565;-63
2023/12/30 08:07:47;;;;;;;1.80;1.80;;;;;;;4.01;100.00;99889.38;5074306;28;20204;-63
2023/12/30 08:10:14;;;;;;;0.70;0.70;;;;;;;4.10;100.00;99891.94;5069684;28;20196;-63
2023/12/30 08:12:40;;;;;;;0.97;0.97;;;;;;;4.22;100.00;99897.09;5071511;28;20278;-65
2023/12/30 08:15:10;;;;;;;0.93;0.93;;;;;;;4.34;100.00;99890.34;5071391;28;20261;-65
2023/12/30 08:17:37;;;;;;;0.83;0.83;;;;;;;4.46;100.00;99891.22;5071484;28;20196;-65
2023/12/30 08:20:05;;;;;;;0.60;0.60;;;;;;;4.53;100.00;99887.00;5076641;28;20191;-64
2023/12/30 08:22:32;;;;;;;1.00;1.00;;;;;;;4.66;100.00;99903.94;5073232;28;20639;-65
2023/12/30 08:25:00;;;;;;;1.67;1.67;;;;;;;4.80;100.00;99907.38;5072235;28;20256;-64
2023/12/30 08:27:27;;;;;;;2.23;2.13;;;;;;;4.96;100.00;99909.06;5072068;28;20203;-65
2023/12/30 08:29:54;;;;;;;0.87;0.87;;;;;;;5.07;100.00;99897.19;5071094;28;20212;-65
2023/12/30 08:32:21;;;;;;;0.97;0.97;;;;;;;5.14;100.00;99882.81;5071127;28;20202;-73
2023/12/30 08:34:48;;;;;;;1.33;1.33;;;;;;;5.40;100.00;99895.47;5071304;28;20204;-66
2023/12/30 08:37:14;;;;;;;1.23;1.17;;;;;;;5.57;100.00;99893.75;5069693;28;20208;-65
2023/12/30 08:39:42;;;;;;;1.33;1.33;;;;;;;5.69;100.00;99889.50;5071284;28;20192;-65
2023/12/30 08:42:10;;;;;;;1.53;1.40;;;;;;;5.80;100.00;99895.41;5072133;28;20196;-65
2023/12/30 08:44:43;;;;;;;1.17;1.17;;;;;;;5.97;100.00;99895.38;5069392;28;20283;-65
2023/12/30 08:47:10;;;;;;;2.80;1.80;;;;;;;6.06;100.00;99887.72;5072587;28;20629;-65
2023/12/30 08:49:37;;;;;;;5.40;1.83;;;;;;;6.05;100.00;99867.34;5071025;28;20212;-66
2023/12/30 08:52:04;;;;;;;1.73;1.13;;;;;;;6.29;100.00;99882.50;5071687;28;20228;-62
2023/12/30 08:54:31;;;;;;;1.33;1.33;;;;;;;6.47;100.00;99886.63;5071357;28;20196;-63
2023/12/30 08:56:58;;;;;;;1.30;1.23;;;;;;;6.60;100.00;99883.16;5070639;28;20238;-62
2023/12/30 08:59:26;;;;;;;1.37;1.37;;;;;;;6.83;100.00;99878.75;5072781;28;20253;-62
2023/12/30 09:01:53;;;;;;;1.20;1.10;;;;;;;6.92;100.00;99863.38;5070975;28;20254;-62
2023/12/30 09:04:20;;;;;;;3.70;1.60;;;;;;;6.96;100.00;99846.38;5070875;28;20660;-63
2023/12/30 09:06:46;;;;;;;0.90;0.90;;;;;;;7.17;100.00;99862.31;5071559;28;20223;-64
2023/12/30 09:09:13;;;;;;;1.57;1.40;;;;;;;7.29;100.00;99861.38;5071147;28;20253;-63
2023/12/30 09:11:41;;;;;;;1.90;1.80;;;;;;;7.49;100.00;99858.63;5071676;28;20584;-64
2023/12/30 09:14:08;;;;;;;2.00;1.90;;;;;;;7.59;100.00;99866.19;5072848;28;20200;-64
2023/12/30 09:16:36;;;;;;;2.90;1.57;;;;;;;7.68;100.00;99865.22;5072962;28;20204;-63
2023/12/30 09:19:03;;;;;;;1.23;1.23;;;;;;;7.69;100.00;99847.31;5070964;28;20200;-64
2023/12/30 09:21:30;;;;;;;1.73;1.63;;;;;;;7.83;100.00;99854.81;5071415;28;20191;-63
2023/12/30 09:23:57;;;;;;;1.63;1.53;;;;;;;7.91;100.00;99851.34;5070927;28;20580;-64
2023/12/30 09:26:25;;;;;;;3.37;2.17;;;;;;;7.90;100.00;99846.25;5071655;28;20315;-64
2023/12/30 09:28:52;;;;;;;2.53;2.33;;;;;;;8.08;100.00;99846.00;5071518;28;20222;-64
2023/12/30 09:31:20;;;;;;;1.50;1.40;;;;;;;8.18;100.00;99855.22;5072029;28;20286;-64
2023/12/30 09:33:48;;;;;;;2.70;1.67;;;;;;;8.35;100.00;99853.34;5071989;28;20686;-64
2023/12/30 09:36:17;;;;;;;2.00;1.57;;;;;;;8.47;100.00;99854.00;5070523;28;20199;-63
2023/12/30 09:38:44;;;;;;;1.60;1.60;;;;;;;8.59;100.00;99853.84;5072441;28;20207;-64
2023/12/30 09:41:12;;;;;;;2.00;1.67;;;;;;;8.63;100.00;99840.13;5071614;28;20196;-64
2023/12/30 09:43:41;;;;;;;4.03;1.90;;;;;;;8.65;100.00;99830.75;5071141;28;20223;-59
2023/12/30 09:46:07;;;;;;;2.07;1.90;;;;;;;8.77;100.00;99838.22;5070808;28;20219;-61
2023/12/30 09:48:36;;;;;;;6.43;1.83;;;;;;;8.75;100.00;99820.38;5069913;28;20318;-59
2023/12/30 09:51:05;;;;;;;2.30;2.20;;;;;;;8.90;100.00;99826.94;5072911;28;20228;-60
2023/12/30 09:53:31;;;;;;;7.33;2.63;;;;;;;8.95;100.00;99828.53;5069948;28;20239;-60
2023/12/30 09:55:59;;;;;;;8.50;3.47;;;;;;;9.03;100.00;99825.84;5067014;28;20207;-60
2023/12/30 09:58:25;;;;;;;4.67;2.97;;;;;;;8.95;100.00;99825.13;5069969;28;20192;-60
2023/12/30 10:00:52;;;;;;;1.27;1.27;;;;;;;8.98;100.00;99817.44;5071569;28;20257;-59
2023/12/30 10:03:21;;;;;;;2.10;2.00;;;;;;;9.00;100.00;99815.69;5070967;28;20643;-60
2023/12/30 10:05:49;;;;;;;2.63;1.97;;;;;;;9.02;100.00;99796.03;5069791;28;20620;-59
2023/12/30 10:08:17;;;;;;;2.03;1.80;;;;;;;9.14;100.00;99816.28;5071334;28;20204;-58
2023/12/30 10:10:47;;;;;;;3.30;1.83;;;;;;;9.22;100.00;99809.31;5072318;28;20261;-59
2023/12/30 10:13:17;;;;;;;2.60;2.30;;;;;;;9.21;100.00;99799.13;5069738;28;20648;-60
2023/12/30 10:15:43;;;;;;;3.70;2.30;;;;;;;9.34;100.00;99806.53;5070873;28;20604;-59
2023/12/30 10:18:12;;;;;;;2.33;1.90;;;;;;;9.50;100.00;99805.34;5069225;28;20222;-60
2023/12/30 10:20:43;;;;;;;2.50;2.40;;;;;;;9.55;100.00;99796.75;5070658;28;20200;-59
2023/12/30 10:23:09;;;;;;;1.73;1.70;;;;;;;9.63;100.00;99792.34;5069703;28;20199;-58
2023/12/30 10:25:39;;;;;;;2.50;2.40;;;;;;;9.67;100.00;99782.00;5070554;28;20220;-59
2023/12/30 10:28:07;;;;;;;1.97;1.60;;;;;;;9.77;100.00;99780.94;5071809;28;20196;-60
2023/12/30 10:30:34;;;;;;;2.90;2.37;;;;;;;9.89;100.00;99772.13;5071202;28;20196;-60
2023/12/30 10:33:07;;;;;;;2.00;1.90;;;;;;;10.03;100.00;99770.13;5070452;28;20208;-59
2023/12/30 10:35:34;;;;;;;10.77;7.40;;;;;;;10.12;99.16;99767.34;5069796;28;20684;-60
2023/12/30 10:38:03;;;;;;;38.13;13.97;;;;;;;10.08;99.19;99757.22;5070284;28;20196;-58
2023/12/30 10:40:30;;;;;;;26.13;11.60;;;;;;;10.18;99.29;99761.31;5073168;28;20207;-59
2023/12/30 10:42:59;;;;;;;3.97;3.67;;;;;;;10.29;99.09;99764.44;5068906;28;20265;-59
2023/12/30 10:45:25;;;;;;;131.07;38.90;;;;;;;10.35;98.70;99760.03;5072299;28;20568;-59
2023/12/30 10:47:55;;;;;;;10.60;6.40;;;;;;;10.40;98.41;99763.31;5069780;28;20206;-59
2023/12/30 10:50:23;;;;;;;4.13;3.83;;;;;;;10.49;97.93;99758.00;5071076;28;20207;-60
2023/12/30 10:52:55;;;;;;;10.60;5.43;;;;;;;10.53;97.28;99751.88;5068630;28;20323;-60
2023/12/30 10:55:26;;;;;;;3.97;3.77;;;;;;;10.67;97.99;99748.13;5070342;28;20341;-59
2023/12/30 10:58:02;;;;;;;4.80;2.77;;;;;;;10.74;96.98;99747.13;5067792;28;20195;-60
2023/12/30 11:00:34;;;;;;;1.80;1.70;;;;;;;10.75;96.66;99733.41;5071543;28;20279;-59
2023/12/30 11:03:01;;;;;;;5.67;3.63;;;;;;;10.85;96.46;99738.28;5070126;28;20604;-60
2023/12/30 11:05:33;;;;;;;5.67;4.27;;;;;;;10.90;96.17;99738.16;5069523;28;20203;-60
2023/12/30 11:08:00;;;;;;;7.53;6.47;;;;;;;11.02;95.47;99736.09;5068318;28;20289;-60
2023/12/30 11:10:27;;;;;;;5.77;3.63;;;;;;;11.03;95.22;99734.38;5067339;28;20254;-59
2023/12/30 11:12:54;;;;;;;11.50;4.97;;;;;;;11.11;94.52;99731.63;5071249;28;20212;-61
2023/12/30 11:15:29;;;;;;;4.30;2.53;;;;;;;11.12;94.12;99723.88;5070010;28;20196;-59
2023/12/30 11:17:57;;;;;;;3.37;3.17;;;;;;;11.17;94.44;99716.06;5068550;28;20231;-60
2023/12/30 11:20:30;;;;;;;1.80;1.70;;;;;;;11.18;93.69;99708.28;5070825;28;20290;-59
2023/12/30 11:22:59;;;;;;;4.80;1.97;;;;;;;11.26;93.11;99711.50;5069809;28;20194;-59
2023/12/30 11:25:34;;;;;;;1.93;1.83;;;;;;;11.26;92.52;99714.06;5069013;28;20234;-60
2023/12/30 11:28:13;;;;;;;4.53;2.03;;;;;;;11.30;93.10;99707.13;5070511;28;20199;-59
2023/12/30 11:30:43;;;;;;;12.47;3.20;;;;;;;11.33;92.73;99707.88;5065014;28;20580;-60
2023/12/30 11:33:10;;;;;;;4.40;4.10;;;;;;;11.27;93.04;99691.81;5074208;28;20204;-60
2023/12/30 11:35:38;;;;;;;4.57;2.60;;;;;;;11.37;92.53;99701.75;5074731;28;20211;-60